Time;durP1;ratioP1;P1;durP2;ratioP2;P2;SDS_P1;SDS_P2;PMS_P1;PMS_P2;Temp;Humidity;BMP_temperature;BMP_pressure;BME280_temperature;BME280_humidity;BME280_pressure;Samples;Min_cycle;Max_cycle;Signal;HPM_P1;HPM_P2
2022/08/30 00:02:26;;;;;;;9.15;1.13;;;;;;;16.78;78.71;101920.47;4962183;28;20050;-50
2022/08/30 00:04:54;;;;;;;9.23;1.30;;;;;;;16.78;79.09;101917.69;4986797;28;20056;-46
2022/08/30 00:07:41;;;;;;;6.65;1.75;;;;;;;16.75;79.15;101918.41;4981275;28;20105;-42
2022/08/30 00:14:39;;;;;;;5.13;1.10;;;;;;;16.75;79.03;101924.00;4980494;28;20370;-44
2022/08/30 00:17:26;;;;;;;8.85;1.88;;;;;;;16.74;79.18;101916.75;4975904;28;20125;-47
2022/08/30 00:20:24;;;;;;;3.92;1.02;;;;;;;16.73;79.09;101923.53;4972985;28;20053;-47
2022/08/30 00:23:13;;;;;;;6.57;1.45;;;;;;;16.72;78.90;101924.69;4974641;28;20563;-46
2022/08/30 00:26:01;;;;;;;5.43;1.20;;;;;;;16.72;78.93;101925.53;4969837;28;20034;-49
2022/08/30 00:28:48;;;;;;;6.72;1.90;;;;;;;16.76;78.90;101931.22;4970007;28;20078;-45
2022/08/30 00:31:35;;;;;;;6.90;1.20;;;;;;;16.73;79.14;101931.94;4972801;28;20543;-48
2022/08/30 00:34:22;;;;;;;3.60;0.80;;;;;;;16.72;79.01;101930.28;4974505;28;20097;-48
2022/08/30 00:37:09;;;;;;;6.35;1.50;;;;;;;16.72;79.22;101935.88;4972374;28;20047;-47
2022/08/30 00:39:56;;;;;;;10.73;1.65;;;;;;;16.70;79.37;101936.25;4977421;28;20177;-44
2022/08/30 00:42:44;;;;;;;11.07;1.60;;;;;;;16.71;79.50;101934.25;4977527;28;20039;-44
2022/08/30 00:45:37;;;;;;;7.20;1.70;;;;;;;16.69;79.35;101931.81;4962213;28;20531;-43
2022/08/30 00:48:24;;;;;;;7.75;1.70;;;;;;;16.66;79.61;101938.13;4966915;28;20039;-46
2022/08/30 00:51:14;;;;;;;12.68;1.80;;;;;;;16.66;79.63;101937.31;4972573;28;20039;-45
2022/08/30 00:54:02;;;;;;;10.27;1.38;;;;;;;16.64;79.66;101939.66;4975879;28;20047;-48
2022/08/30 00:56:51;;;;;;;8.63;1.85;;;;;;;16.62;79.78;101942.00;4973602;28;20138;-42
2022/08/30 00:59:39;;;;;;;9.27;1.50;;;;;;;16.58;79.99;101947.50;4975595;28;20130;-43
2022/08/30 01:02:29;;;;;;;10.25;1.50;;;;;;;16.59;80.04;101949.13;4974084;28;20086;-45
2022/08/30 01:05:18;;;;;;;6.85;1.60;;;;;;;16.61;80.13;101951.56;4974980;28;20042;-43
2022/08/30 01:08:05;;;;;;;4.72;1.42;;;;;;;16.61;80.16;101943.16;4971002;28;20046;-41
2022/08/30 01:10:55;;;;;;;10.13;1.55;;;;;;;16.62;80.23;101953.19;4975908;28;20042;-46
2022/08/30 01:13:46;;;;;;;9.60;1.67;;;;;;;16.59;80.07;101953.91;4969316;28;20453;-49
2022/08/30 01:16:35;;;;;;;9.05;3.03;;;;;;;16.58;80.17;101952.25;4968279;28;20497;-43
2022/08/30 01:19:44;;;;;;;6.93;1.73;;;;;;;16.57;80.26;101957.06;4974456;28;20054;-45
2022/08/30 01:22:38;;;;;;;7.70;1.88;;;;;;;16.54;80.21;101952.19;4964329;28;20137;-49
2022/08/30 01:25:29;;;;;;;5.75;1.45;;;;;;;16.53;80.20;101958.09;4974841;28;20047;-45
2022/08/30 01:28:21;;;;;;;5.63;1.50;;;;;;;16.54;80.39;101962.53;4974196;28;20113;-42
2022/08/30 01:31:09;;;;;;;11.65;2.22;;;;;;;16.55;80.03;101958.59;4973628;28;20079;-44
2022/08/30 01:33:56;;;;;;;7.18;1.58;;;;;;;16.55;79.94;101969.78;4973649;28;20440;-45
2022/08/30 01:36:45;;;;;;;8.88;2.20;;;;;;;16.50;79.93;101962.41;4972436;28;20050;-46
2022/08/30 01:39:32;;;;;;;5.82;1.67;;;;;;;16.47;80.11;101962.31;4973824;28;20122;-47
2022/08/30 01:42:21;;;;;;;5.82;1.60;;;;;;;16.41;80.06;101962.53;4962329;28;20071;-48
2022/08/30 01:45:09;;;;;;;5.82;1.58;;;;;;;16.39;80.07;101962.09;4990266;28;20086;-44
2022/08/30 01:47:56;;;;;;;13.10;2.30;;;;;;;16.35;80.10;101957.56;4990423;28;20129;-44
2022/08/30 01:50:47;;;;;;;6.65;1.80;;;;;;;16.34;80.23;101964.31;4984367;28;20053;-44
2022/08/30 01:53:34;;;;;;;11.45;1.52;;;;;;;16.31;80.23;101957.47;4990300;28;20276;-45
2022/08/30 01:56:23;;;;;;;7.38;2.10;;;;;;;16.27;80.35;101959.34;4988432;28;20089;-49
2022/08/30 01:59:10;;;;;;;7.45;1.73;;;;;;;16.24;80.25;101953.66;4993243;28;20131;-46
2022/08/30 02:01:59;;;;;;;4.50;2.50;;;;;;;16.21;80.34;101959.94;4992442;28;20046;-45
2022/08/30 02:04:46;;;;;;;6.95;2.05;;;;;;;16.17;80.29;101959.84;4986724;28;20039;-45
2022/08/30 02:07:33;;;;;;;8.13;1.60;;;;;;;16.17;80.28;101948.69;4980058;28;20188;-46
2022/08/30 02:10:21;;;;;;;8.07;3.22;;;;;;;16.16;80.12;101958.22;4994606;28;20125;-44
2022/08/30 02:13:08;;;;;;;9.32;2.15;;;;;;;16.14;80.02;101954.97;4990022;28;20058;-45
2022/08/30 02:15:56;;;;;;;6.72;1.80;;;;;;;16.12;79.97;101950.91;4990431;28;20196;-49
2022/08/30 02:18:44;;;;;;;7.30;2.40;;;;;;;16.10;79.89;101948.44;4988763;28;20058;-42
2022/08/30 02:21:31;;;;;;;7.07;3.33;;;;;;;16.10;79.99;101954.03;4986830;28;20043;-46
2022/08/30 02:24:19;;;;;;;15.02;4.00;;;;;;;16.09;79.75;101958.00;4993164;28;20484;-49
2022/08/30 02:27:06;;;;;;;7.93;2.75;;;;;;;16.05;79.85;101948.69;4988359;28;20085;-45
2022/08/30 02:34:04;;;;;;;5.72;2.45;;;;;;;16.00;79.65;101942.53;4993509;28;20385;-46
2022/08/30 02:36:51;;;;;;;8.88;2.55;;;;;;;15.97;79.65;101954.41;4989226;28;20654;-45
2022/08/30 02:39:38;;;;;;;5.13;2.22;;;;;;;15.94;79.75;101955.94;4991111;28;20049;-44
2022/08/30 02:42:25;;;;;;;5.15;2.55;;;;;;;15.94;79.91;101960.72;4994165;28;20089;-46
2022/08/30 02:45:14;;;;;;;6.15;3.00;;;;;;;15.95;79.91;101956.75;4989773;28;20073;-44
2022/08/30 02:48:03;;;;;;;4.30;2.65;;;;;;;15.93;79.85;101962.72;4985575;28;20038;-46
2022/08/30 02:50:51;;;;;;;4.97;2.83;;;;;;;15.91;79.88;101956.66;4990219;28;20045;-47
2022/08/30 02:53:40;;;;;;;7.95;3.25;;;;;;;15.90;79.99;101968.16;4989492;28;20046;-47
2022/08/30 02:56:28;;;;;;;4.75;2.80;;;;;;;15.89;79.78;101960.94;4992087;28;20189;-44
2022/08/30 02:59:16;;;;;;;7.78;3.00;;;;;;;15.87;80.03;101968.88;4990600;28;20184;-45
2022/08/30 06:32:40;;;;;;;3.53;1.88;;;;;;;14.99;82.15;102054.00;1883672;26;20073;-46
2022/08/30 06:39:38;;;;;;;10.60;2.28;;;;;;;15.06;82.15;102067.38;4991476;28;20042;-47
2022/08/30 06:42:10;;;;;;;3.92;1.60;;;;;;;15.11;82.14;102076.34;5008054;28;20053;-48
2022/08/30 06:44:38;;;;;;;7.80;1.85;;;;;;;15.17;82.21;102076.94;4996028;28;20047;-47
2022/08/30 06:47:11;;;;;;;5.18;1.98;;;;;;;15.21;82.07;102075.09;4983552;28;20437;-45
2022/08/30 06:49:37;;;;;;;3.70;1.83;;;;;;;15.26;81.80;102074.88;4995282;28;20094;-45
2022/08/30 06:52:06;;;;;;;5.68;1.65;;;;;;;15.31;81.65;102077.44;5007272;28;20089;-44
2022/08/30 06:54:33;;;;;;;4.53;1.58;;;;;;;15.36;81.36;102084.78;4995220;28;20038;-45
2022/08/30 06:57:00;;;;;;;3.55;1.20;;;;;;;15.41;81.12;102081.78;4995112;28;20437;-45
2022/08/30 06:59:27;;;;;;;3.95;1.40;;;;;;;15.43;80.71;102080.28;4993376;28;20054;-46
2022/08/30 07:01:54;;;;;;;4.63;1.33;;;;;;;15.49;80.46;102073.31;4995138;28;20088;-47
2022/08/30 07:04:22;;;;;;;4.38;1.42;;;;;;;15.54;80.14;102075.09;4984046;28;20511;-47
2022/08/30 07:06:48;;;;;;;3.45;1.23;;;;;;;15.58;79.50;102071.25;4992574;28;20488;-45
2022/08/30 07:09:16;;;;;;;3.67;1.30;;;;;;;15.64;79.02;102080.22;4991682;28;20096;-44
2022/08/30 07:11:43;;;;;;;3.17;0.93;;;;;;;15.66;78.46;102080.69;4993707;28;20600;-45
2022/08/30 07:14:10;;;;;;;6.93;1.30;;;;;;;15.67;78.02;102082.31;4994093;28;20088;-45
2022/08/30 07:16:37;;;;;;;3.05;1.08;;;;;;;15.69;77.58;102078.03;4993028;28;20101;-44
2022/08/30 07:19:05;;;;;;;5.10;1.17;;;;;;;15.75;77.02;102092.56;4988043;28;20042;-46
2022/08/30 07:25:22;;;;;;;4.07;1.10;;;;;;;15.87;76.33;102078.59;4992762;28;20420;-45
2022/08/30 07:27:50;;;;;;;14.50;2.78;;;;;;;15.93;76.05;102082.81;4999490;28;20039;-44
2022/08/30 07:30:17;;;;;;;1.60;1.00;;;;;;;16.03;75.71;102081.50;4991841;28;20057;-45
2022/08/30 07:32:47;;;;;;;118.78;14.13;;;;;;;16.08;75.38;102079.31;4999958;28;20125;-45
2022/08/30 07:35:14;;;;;;;93.38;12.70;;;;;;;16.12;74.87;102088.63;4993490;28;20455;-44
2022/08/30 07:37:41;;;;;;;38.58;4.90;;;;;;;16.19;74.48;102085.22;4991591;28;20100;-45
2022/08/30 07:40:08;;;;;;;14.13;2.25;;;;;;;16.27;74.10;102093.50;4994251;28;20093;-44
2022/08/30 07:42:35;;;;;;;50.08;7.65;;;;;;;16.39;73.73;102090.66;4994673;28;20043;-45
2022/08/30 07:52:43;;;;;;;2.20;0.73;;;;;;;16.80;71.80;102102.72;4975540;28;20042;-44
2022/08/30 07:55:10;;;;;;;1.05;0.60;;;;;;;16.76;71.55;102113.00;4975252;28;20081;-45
2022/08/30 07:57:36;;;;;;;2.15;0.90;;;;;;;16.83;71.38;102111.22;4974038;28;20094;-44
2022/08/30 08:04:09;;;;;;;0.40;0.40;;;;;;;16.99;69.85;102114.09;4975018;28;20042;-44
2022/08/30 08:06:39;;;;;;;3.53;0.52;;;;;;;17.00;69.56;102110.91;4981023;28;20049;-45
2022/08/30 08:09:06;;;;;;;4.63;1.05;;;;;;;17.00;68.72;102112.91;4997200;28;20041;-44
2022/08/30 08:11:34;;;;;;;1.20;0.22;;;;;;;17.01;68.35;102118.16;4977909;28;20043;-44
2022/08/30 08:14:03;;;;;;;3.10;0.60;;;;;;;17.05;68.31;102118.25;4975426;28;20047;-44
2022/08/30 08:16:32;;;;;;;2.20;0.38;;;;;;;17.13;68.21;102116.50;4991859;28;20042;-45
2022/08/30 08:18:58;;;;;;;2.08;0.20;;;;;;;17.17;67.96;102121.00;5013525;28;20566;-45
2022/08/30 08:32:58;;;;;;;0.10;0.10;;;;;;;17.75;67.92;102138.22;5004297;28;20047;-49
2022/08/30 08:36:23;;;;;;;1.60;0.38;;;;;;;18.03;67.07;102147.38;4975785;28;20632;-50
2022/08/30 08:42:41;;;;;;;0.20;0.13;;;;;;;18.93;66.73;102149.13;4987618;28;20132;-46
2022/08/30 08:49:19;;;;;;;0.28;0.10;;;;;;;21.07;62.14;102152.13;4986946;28;20035;-48
2022/08/30 09:02:45;;;;;;;1.10;0.30;;;;;;;24.86;50.28;102154.97;4986445;28;20046;-46
2022/08/30 09:24:48;;;;;;;64.47;10.15;;;;;;;27.56;41.02;102150.31;5016750;28;20126;-44
2022/08/30 09:34:56;;;;;;;1.38;0.30;;;;;;;27.36;39.29;102144.44;5000306;28;20129;-44
2022/08/30 09:37:35;;;;;;;1.77;1.08;;;;;;;27.45;39.05;102155.34;4987588;28;20097;-44
2022/08/30 09:44:23;;;;;;;1.77;0.30;;;;;;;27.79;39.00;102153.22;4995704;28;20042;-45
2022/08/30 09:47:56;;;;;;;1.30;0.30;;;;;;;27.79;38.69;102156.06;4995083;28;20050;-45
2022/08/30 09:50:26;;;;;;;0.63;0.20;;;;;;;27.79;37.83;102150.38;4996164;28;20137;-44
2022/08/30 09:56:36;;;;;;;1.08;0.30;;;;;;;27.26;38.11;102150.28;4977110;28;20059;-44
2022/08/30 10:03:31;;;;;;;2.60;1.02;;;;;;;27.14;39.00;102160.97;4991198;28;20030;-44
2022/08/30 10:13:56;;;;;;;1.90;0.45;;;;;;;27.20;38.61;102158.47;4975197;28;20120;-48
2022/08/30 10:16:58;;;;;;;2.78;0.63;;;;;;;26.66;39.08;102157.47;4992817;28;20089;-44
2022/08/30 10:24:11;;;;;;;0.70;0.40;;;;;;;26.35;39.38;102167.91;5014041;28;20038;-44
2022/08/30 10:34:36;;;;;;;0.55;0.40;;;;;;;26.11;40.61;102159.56;4975192;28;20051;-44
2022/08/30 10:55:15;;;;;;;1.17;0.40;;;;;;;23.21;45.29;102148.75;4990456;28;20034;-52
2022/08/30 10:57:43;;;;;;;1.75;0.50;;;;;;;22.71;46.55;102152.53;4994299;28;20047;-47
2022/08/30 11:00:21;;;;;;;1.27;0.60;;;;;;;22.40;47.04;102146.22;4986573;28;20043;-51
2022/08/30 11:03:15;;;;;;;1.67;0.65;;;;;;;22.50;47.06;102141.06;4991164;28;20077;-48
2022/08/30 11:06:09;;;;;;;0.80;0.40;;;;;;;22.63;47.34;102143.22;4987659;28;20129;-47
2022/08/30 11:09:03;;;;;;;0.82;0.68;;;;;;;22.60;48.02;102146.78;4982984;28;20042;-48
2022/08/30 11:15:49;;;;;;;1.90;0.32;;;;;;;22.35;48.62;102149.41;4994748;28;20109;-48
2022/08/30 11:18:17;;;;;;;3.20;0.50;;;;;;;22.27;48.46;102156.22;4992568;28;20043;-50
2022/08/30 11:29:28;;;;;;;;;;;;;;;21.84;49.27;102148.56;4983416;28;20029;-51
2022/08/30 11:36:34;;;;;;;0.38;0.25;;;;;;;21.08;50.31;102145.28;4982518;28;20508;-47
2022/08/30 11:58:32;;;;;;;13.93;3.25;;;;;;;19.53;52.63;102167.22;4992345;28;20662;-51
2022/08/30 12:01:25;;;;;;;2.83;0.40;;;;;;;19.47;52.98;102172.34;4983947;28;20066;-45
2022/08/30 12:04:46;;;;;;;9.15;2.10;;;;;;;19.68;52.89;102172.75;4992604;28;20416;-47
2022/08/30 12:11:03;;;;;;;2.05;0.40;;;;;;;20.15;53.00;102174.41;4989094;28;20045;-45
2022/08/30 12:13:52;;;;;;;3.15;0.30;;;;;;;20.22;52.75;102177.31;4983874;28;20155;-44
2022/08/30 12:27:33;;;;;;;4.40;0.30;;;;;;;20.38;52.71;102167.59;4986086;28;20034;-45
2022/08/30 12:30:26;;;;;;;0.55;0.28;;;;;;;20.53;52.19;102168.59;4992032;28;20443;-43
2022/08/30 12:32:57;;;;;;;0.98;0.20;;;;;;;20.65;52.65;102171.22;4997685;28;20424;-48
2022/08/30 12:40:10;;;;;;;0.85;0.28;;;;;;;20.82;51.56;102170.66;4992821;28;20113;-46
2022/08/30 12:42:48;;;;;;;1.45;0.40;;;;;;;20.59;51.58;102172.72;4995693;28;20137;-44
2022/08/30 12:45:21;;;;;;;0.35;0.30;;;;;;;20.44;51.93;102165.22;4997084;28;20043;-48
2022/08/30 12:48:07;;;;;;;1.10;0.22;;;;;;;20.53;52.08;102151.72;4995457;28;20064;-45
2022/08/30 12:54:19;;;;;;;0.30;0.20;;;;;;;20.81;51.45;102162.59;4996982;28;20035;-47
2022/08/30 12:57:02;;;;;;;0.50;0.20;;;;;;;20.88;51.08;102155.06;4997794;28;20124;-43
2022/08/30 13:00:22;;;;;;;1.33;0.38;;;;;;;21.04;51.17;102164.13;4997927;28;20045;-45
2022/08/30 13:03:35;;;;;;;1.33;0.50;;;;;;;21.01;51.08;102156.44;4984262;28;20451;-44
2022/08/30 13:06:57;;;;;;;1.00;0.35;;;;;;;21.03;51.58;102154.03;4998437;28;20050;-44
2022/08/30 13:13:39;;;;;;;1.85;0.35;;;;;;;21.40;51.17;102147.66;5013935;28;20295;-45
2022/08/30 13:24:04;;;;;;;1.27;0.40;;;;;;;21.61;51.29;102162.00;4996515;28;20043;-44
2022/08/30 13:26:57;;;;;;;1.95;0.30;;;;;;;21.44;51.08;102154.19;4997191;28;20124;-43
2022/08/30 13:29:46;;;;;;;0.40;0.40;;;;;;;21.13;51.12;102172.28;4996935;28;20117;-45
2022/08/30 13:32:37;;;;;;;2.15;1.20;;;;;;;20.98;51.81;102173.28;4993050;28;20416;-45
2022/08/30 13:35:25;;;;;;;0.73;0.20;;;;;;;20.95;52.14;102163.59;5006416;28;20045;-45
2022/08/30 13:38:13;;;;;;;3.10;0.35;;;;;;;21.14;52.22;102149.41;5016296;28;20508;-44
2022/08/30 13:41:00;;;;;;;0.52;0.40;;;;;;;21.13;51.77;102147.75;4986704;28;20519;-44
2022/08/30 13:43:48;;;;;;;1.35;0.38;;;;;;;21.19;51.60;102137.78;4996153;28;20113;-44
2022/08/30 13:46:56;;;;;;;0.70;0.30;;;;;;;21.07;51.84;102143.69;4997939;28;20046;-44
2022/08/30 13:50:04;;;;;;;2.38;0.70;;;;;;;21.18;51.72;102141.78;4993264;28;20558;-44
2022/08/30 13:52:52;;;;;;;0.60;0.28;;;;;;;21.60;51.69;102133.03;4995503;28;20050;-45
2022/08/30 13:55:41;;;;;;;2.78;0.38;;;;;;;21.86;50.85;102129.28;4995625;28;20050;-45
2022/08/30 13:58:28;;;;;;;0.77;0.30;;;;;;;21.96;50.51;102131.38;4998844;28;20125;-44
2022/08/30 14:01:15;;;;;;;2.55;0.50;;;;;;;21.92;50.74;102127.72;5003066;28;20129;-44
2022/08/30 14:04:02;;;;;;;1.25;0.20;;;;;;;21.74;50.85;102127.50;5003113;28;20034;-44
2022/08/30 14:11:08;;;;;;;2.50;0.70;;;;;;;21.83;51.05;102118.75;4996441;28;20039;-45
2022/08/30 14:13:55;;;;;;;1.73;0.93;;;;;;;22.10;50.76;102128.69;4995999;28;20482;-45
2022/08/30 14:17:02;;;;;;;2.85;1.35;;;;;;;22.26;50.56;102128.41;4977087;28;20051;-44
2022/08/30 14:19:49;;;;;;;3.03;1.33;;;;;;;22.44;50.28;102115.22;4977118;28;20499;-45
2022/08/30 14:22:39;;;;;;;1.15;0.68;;;;;;;22.59;49.84;102121.75;5002123;28;20034;-44
2022/08/30 14:25:27;;;;;;;2.40;0.73;;;;;;;22.75;50.00;102133.56;4975837;28;20408;-44
2022/08/30 14:28:14;;;;;;;4.32;1.42;;;;;;;22.84;49.80;102132.03;4977829;28;20464;-44
2022/08/30 14:31:02;;;;;;;1.13;0.20;;;;;;;22.88;49.72;102134.84;4978868;28;20050;-44
2022/08/30 14:37:52;;;;;;;2.42;0.90;;;;;;;22.87;49.92;102136.06;4981317;28;20038;-47
2022/08/30 14:40:40;;;;;;;2.92;0.57;;;;;;;22.90;50.03;102132.47;4992787;28;20047;-44
2022/08/30 14:43:27;;;;;;;2.33;0.60;;;;;;;22.68;50.06;102133.53;4995164;28;20447;-46
2022/08/30 14:46:14;;;;;;;1.73;1.15;;;;;;;22.40;50.19;102125.66;4985348;28;20129;-44
2022/08/30 14:49:02;;;;;;;8.60;3.63;;;;;;;22.22;51.33;102128.38;4991436;28;20053;-44
2022/08/30 14:51:52;;;;;;;2.13;0.80;;;;;;;22.63;51.01;102126.25;4995479;28;20038;-44
2022/08/30 14:54:39;;;;;;;3.50;1.80;;;;;;;22.67;50.76;102129.91;5002677;28;20132;-45
2022/08/30 14:57:26;;;;;;;3.30;0.65;;;;;;;22.47;51.24;102124.91;4996591;28;20042;-50
2022/08/30 15:00:14;;;;;;;5.38;1.70;;;;;;;22.32;51.37;102136.09;4985191;28;20047;-49
2022/08/30 15:03:03;;;;;;;1.88;1.17;;;;;;;21.87;51.82;102136.50;4980213;28;20046;-46
2022/08/30 15:05:51;;;;;;;1.27;0.90;;;;;;;21.77;52.66;102131.56;4994410;28;20046;-45
2022/08/30 15:08:39;;;;;;;4.65;1.20;;;;;;;21.76;53.13;102125.09;4959584;28;20058;-44
2022/08/30 15:11:26;;;;;;;3.55;1.42;;;;;;;21.77;53.07;102123.91;4996166;28;20073;-46
2022/08/30 15:14:15;;;;;;;5.32;0.65;;;;;;;21.65;53.70;102129.84;5009422;28;20048;-46
2022/08/30 15:17:02;;;;;;;1.60;0.82;;;;;;;21.47;54.14;102125.22;4984503;28;20077;-45
2022/08/30 15:19:50;;;;;;;0.85;0.43;;;;;;;21.49;54.49;102126.47;4995226;28;20128;-46
2022/08/30 15:22:37;;;;;;;3.95;0.80;;;;;;;21.85;53.94;102127.59;4994816;28;20049;-46
2022/08/30 15:25:27;;;;;;;1.48;0.60;;;;;;;22.08;53.47;102124.63;4995178;28;20061;-44
2022/08/30 15:28:14;;;;;;;3.25;1.38;;;;;;;22.31;53.49;102122.38;4994582;28;20481;-44
2022/08/30 15:31:03;;;;;;;2.65;0.50;;;;;;;22.37;53.25;102127.25;4986730;28;20057;-46
2022/08/30 15:33:55;;;;;;;2.85;1.10;;;;;;;22.39;53.18;102124.88;4985775;28;20532;-44
2022/08/30 15:36:44;;;;;;;2.67;0.90;;;;;;;22.48;53.01;102116.03;4994593;28;20412;-47
2022/08/30 15:39:32;;;;;;;1.08;0.60;;;;;;;22.34;52.78;102116.78;5005667;28;20504;-44
2022/08/30 15:42:19;;;;;;;1.55;0.77;;;;;;;21.93;53.85;102118.03;4993491;28;20129;-46
2022/08/30 15:45:07;;;;;;;1.10;0.52;;;;;;;21.62;54.03;102112.91;4998596;28;20460;-44
2022/08/30 15:47:58;;;;;;;0.50;0.35;;;;;;;21.49;54.09;102115.19;4981291;28;20405;-47
2022/08/30 15:50:45;;;;;;;2.15;0.70;;;;;;;21.30;54.16;102111.75;4994549;28;20124;-46
2022/08/30 15:53:33;;;;;;;1.00;0.80;;;;;;;21.48;54.27;102102.28;4993076;28;20049;-44
2022/08/30 15:56:20;;;;;;;1.35;0.63;;;;;;;21.61;53.85;102111.25;4994617;28;20132;-43
2022/08/30 15:59:08;;;;;;;1.63;0.80;;;;;;;21.57;53.80;102110.44;4983621;28;20117;-46
2022/08/30 16:01:56;;;;;;;4.55;0.98;;;;;;;21.61;54.17;102108.44;4993094;28;20153;-45
2022/08/30 16:04:45;;;;;;;0.80;0.50;;;;;;;21.81;53.66;102109.88;4993132;28;20042;-44
2022/08/30 16:07:32;;;;;;;5.43;1.70;;;;;;;21.99;53.54;102110.03;4992506;28;20559;-44
2022/08/30 16:10:26;;;;;;;1.83;0.85;;;;;;;21.82;53.31;102111.47;4993819;28;20054;-46
2022/08/30 16:13:15;;;;;;;2.78;0.70;;;;;;;21.77;53.39;102101.38;4984128;28;20057;-46
2022/08/30 16:20:04;;;;;;;3.65;0.90;;;;;;;21.76;53.70;102098.94;4983767;28;20047;-44
2022/08/30 16:22:52;;;;;;;4.07;0.55;;;;;;;22.03;53.37;102103.22;4992379;28;20046;-44
2022/08/30 16:25:39;;;;;;;1.98;0.60;;;;;;;22.36;52.65;102096.63;4995277;28;20053;-45
2022/08/30 16:28:27;;;;;;;2.75;0.45;;;;;;;22.65;51.95;102097.63;4992519;28;20046;-47
2022/08/30 16:35:25;;;;;;;1.50;0.50;;;;;;;22.36;51.61;102102.25;4988161;28;20046;-47
2022/08/30 16:38:13;;;;;;;2.35;1.15;;;;;;;22.03;52.23;102096.78;4991926;28;20508;-44
2022/08/30 16:41:34;;;;;;;4.07;1.42;;;;;;;21.90;52.23;102096.25;4991659;28;20097;-46
2022/08/30 16:44:01;;;;;;;0.73;0.60;;;;;;;21.61;53.05;102085.91;4994967;28;20046;-44
2022/08/30 16:50:42;;;;;;;3.03;1.00;;;;;;;22.13;53.42;102088.41;4991141;28;20161;-44
2022/08/30 16:53:10;;;;;;;3.78;1.75;;;;;;;22.27;52.93;102091.31;4992281;28;20046;-44
2022/08/30 16:55:39;;;;;;;5.18;1.60;;;;;;;22.36;53.13;102088.97;4993781;28;20050;-44
2022/08/30 16:58:09;;;;;;;3.63;1.10;;;;;;;22.61;52.96;102089.09;4994306;28;20085;-44
2022/08/30 17:04:42;;;;;;;2.65;1.50;;;;;;;22.80;52.90;102096.50;4993005;28;20045;-45
2022/08/30 17:11:12;;;;;;;1.95;1.13;;;;;;;22.72;52.72;102092.00;4993844;28;20039;-45
2022/08/30 17:13:40;;;;;;;2.78;1.15;;;;;;;22.76;52.86;102098.50;4990078;28;20046;-44
2022/08/30 17:16:28;;;;;;;3.92;1.88;;;;;;;22.59;52.47;102093.53;4991581;28;20531;-44
2022/08/30 17:19:15;;;;;;;3.75;1.00;;;;;;;22.22;53.00;102091.69;4994654;28;20047;-45
2022/08/30 17:22:19;;;;;;;2.47;0.80;;;;;;;21.91;53.06;102097.91;4995805;28;20046;-46
2022/08/30 17:24:48;;;;;;;2.83;0.80;;;;;;;21.61;53.76;102100.00;5007919;28;20157;-48
2022/08/30 17:31:07;;;;;;;6.60;1.42;;;;;;;21.00;54.26;102094.84;4991285;28;20034;-43
2022/08/30 17:37:25;;;;;;;1.80;1.10;;;;;;;20.34;55.10;102087.13;4995097;28;20117;-44
2022/08/30 17:40:32;;;;;;;1.88;0.80;;;;;;;20.12;55.94;102085.94;4988180;28;20639;-44
2022/08/30 17:47:31;;;;;;;1.38;0.70;;;;;;;20.19;56.46;102090.88;4987687;28;20157;-43
2022/08/30 17:50:22;;;;;;;2.60;0.70;;;;;;;20.33;56.79;102088.34;4986322;28;20058;-46
2022/08/30 17:53:14;;;;;;;4.13;1.77;;;;;;;20.19;57.08;102085.25;4985379;28;20050;-44
2022/08/30 17:56:03;;;;;;;3.83;1.45;;;;;;;20.21;56.89;102089.31;4980433;28;20046;-44
2022/08/30 17:58:50;;;;;;;3.63;1.13;;;;;;;20.39;57.38;102089.59;4988492;28;20078;-44
2022/08/30 18:01:40;;;;;;;1.73;0.90;;;;;;;20.51;57.16;102089.41;4989503;28;20050;-44
2022/08/30 18:04:28;;;;;;;4.70;1.10;;;;;;;20.67;57.10;102090.03;4988365;28;20042;-47
2022/08/30 18:07:15;;;;;;;3.35;1.25;;;;;;;20.81;56.94;102098.63;4992702;28;20050;-49
2022/08/30 18:10:07;;;;;;;3.67;1.27;;;;;;;20.82;57.07;102097.47;4992277;28;20042;-45
2022/08/30 18:12:57;;;;;;;4.38;2.45;;;;;;;20.76;57.08;102101.00;4970472;28;20133;-49
2022/08/30 18:19:55;;;;;;;2.08;0.73;;;;;;;20.24;57.84;102101.84;4992614;28;20051;-46
2022/08/30 18:22:43;;;;;;;2.88;0.73;;;;;;;19.99;58.07;102109.84;4985320;28;20054;-48
2022/08/30 18:25:30;;;;;;;4.60;0.73;;;;;;;19.83;58.55;102112.00;4991113;28;20129;-45
2022/08/30 18:28:17;;;;;;;5.93;0.88;;;;;;;19.71;58.80;102121.41;4986852;28;20074;-47
2022/08/30 18:31:05;;;;;;;3.25;0.90;;;;;;;19.60;59.02;102119.59;4987618;28;20065;-47
2022/08/30 18:33:56;;;;;;;3.53;1.00;;;;;;;19.46;59.60;102124.97;4994576;28;20066;-44
2022/08/30 18:36:45;;;;;;;2.42;0.80;;;;;;;19.30;59.50;102133.47;4988852;28;20050;-46
2022/08/30 18:39:33;;;;;;;4.72;1.10;;;;;;;19.19;60.31;102136.06;4986484;28;20396;-44
2022/08/30 18:42:20;;;;;;;2.08;1.00;;;;;;;19.10;60.90;102137.44;4985836;28;20058;-47
2022/08/30 18:45:08;;;;;;;8.38;1.73;;;;;;;19.07;61.12;102135.38;4991981;28;20077;-45
2022/08/30 18:48:01;;;;;;;3.17;1.85;;;;;;;19.02;61.27;102132.84;4988929;28;20052;-43
2022/08/30 18:50:48;;;;;;;1.73;1.15;;;;;;;18.90;61.45;102141.44;4993220;28;20443;-45
2022/08/30 18:53:36;;;;;;;3.05;1.05;;;;;;;18.84;61.97;102141.72;4986366;28;20167;-44
2022/08/30 18:56:23;;;;;;;4.03;1.00;;;;;;;18.84;62.15;102127.69;4988058;28;20051;-45
2022/08/30 18:59:17;;;;;;;6.38;1.40;;;;;;;18.83;62.24;102131.66;4993671;28;20404;-44
2022/08/30 19:02:06;;;;;;;4.35;2.47;;;;;;;18.88;62.51;102132.56;4988244;28;20050;-47
2022/08/30 19:04:35;;;;;;;4.50;1.00;;;;;;;18.87;62.63;102130.94;4990944;28;20499;-43
2022/08/30 19:07:05;;;;;;;4.93;1.35;;;;;;;18.96;62.49;102128.72;4991363;28;20172;-42
2022/08/30 19:09:32;;;;;;;6.78;1.92;;;;;;;18.95;62.71;102138.31;4986143;28;20038;-44
2022/08/30 19:11:59;;;;;;;9.55;1.98;;;;;;;18.89;62.73;102131.38;4985011;28;20051;-44
2022/08/30 19:14:26;;;;;;;4.50;1.80;;;;;;;18.77;63.15;102133.13;4984678;28;20097;-44
2022/08/30 19:16:55;;;;;;;1.90;1.17;;;;;;;18.65;63.25;102133.28;4989511;28;20385;-48
2022/08/30 19:19:22;;;;;;;4.75;1.75;;;;;;;18.52;63.53;102131.78;4993572;28;20476;-46
2022/08/30 19:25:29;;;;;;;7.63;1.30;;;;;;;18.37;63.44;102143.81;4989116;28;20042;-46
2022/08/30 19:31:37;;;;;;;6.38;1.77;;;;;;;18.26;64.04;102139.94;4990313;28;20031;-45
2022/08/30 19:34:04;;;;;;;2.10;1.20;;;;;;;18.25;64.20;102143.91;4989409;28;20188;-44
2022/08/30 19:36:31;;;;;;;2.17;1.15;;;;;;;18.24;64.46;102137.47;4990987;28;20093;-44
2022/08/30 19:38:58;;;;;;;2.45;0.70;;;;;;;18.22;64.42;102133.41;4988243;28;20050;-44
2022/08/30 19:45:06;;;;;;;8.02;1.23;;;;;;;18.13;64.58;102130.00;4989629;28;20030;-47
2022/08/30 19:47:56;;;;;;;2.38;0.60;;;;;;;18.09;64.60;102126.28;4987910;28;20046;-44
2022/08/30 19:50:43;;;;;;;3.42;0.75;;;;;;;18.03;64.75;102136.16;4989253;28;20082;-44
2022/08/30 19:53:33;;;;;;;2.22;1.25;;;;;;;17.95;65.20;102137.94;4997046;28;20058;-45
2022/08/30 19:56:20;;;;;;;4.07;0.65;;;;;;;17.91;65.36;102133.44;4983906;28;20180;-49
2022/08/30 20:07:20;;;;;;;4.80;0.95;;;;;;;17.66;65.28;102146.78;4989922;28;20050;-44
2022/08/30 20:10:14;;;;;;;3.00;1.05;;;;;;;17.61;65.59;102156.25;4985317;28;20188;-44
2022/08/30 20:13:03;;;;;;;3.42;1.10;;;;;;;17.58;65.80;102151.38;4988208;28;20144;-46
2022/08/30 20:15:53;;;;;;;5.10;0.88;;;;;;;17.55;65.85;102148.50;4986820;28;20082;-46
2022/08/30 20:19:12;;;;;;;2.87;0.70;;;;;;;17.46;66.17;102148.63;4965509;28;20121;-44
2022/08/30 20:25:30;;;;;;;2.05;0.80;;;;;;;17.37;66.17;102152.75;4985394;28;20046;-44
2022/08/30 20:27:58;;;;;;;6.18;0.80;;;;;;;17.35;66.61;102146.69;4984085;28;20034;-45
2022/08/30 20:30:25;;;;;;;2.33;0.88;;;;;;;17.34;66.79;102154.28;4986233;28;20737;-49
2022/08/30 20:36:43;;;;;;;5.75;1.60;;;;;;;17.26;67.30;102146.84;4990853;28;20058;-43
2022/08/30 20:39:11;;;;;;;4.60;1.25;;;;;;;17.25;67.51;102150.81;4981782;28;20504;-44
2022/08/30 20:41:43;;;;;;;4.55;1.00;;;;;;;17.24;67.87;102151.16;4988051;28;20097;-44
2022/08/30 20:44:11;;;;;;;2.78;0.77;;;;;;;17.19;68.06;102157.84;4986504;28;20042;-44
2022/08/30 20:46:49;;;;;;;3.20;1.50;;;;;;;17.15;68.34;102145.75;4990197;28;20050;-44
2022/08/30 20:49:16;;;;;;;4.32;1.20;;;;;;;17.12;68.51;102146.44;4988314;28;20035;-44